createdAt,value
2023-01-01T00:00:40.072Z,41.70
2023-01-01T00:03:06.599Z,43.50
2023-01-01T00:05:33.021Z,37.33
2023-01-01T00:08:04.259Z,40.50
2023-01-01T00:10:31.510Z,40.00
2023-01-01T00:12:58.607Z,43.40
2023-01-01T00:15:27.258Z,43.30
2023-01-01T00:17:54.064Z,46.47
2023-01-01T00:20:20.415Z,44.40
2023-01-01T00:22:55.906Z,53.03
2023-01-01T00:25:23.122Z,47.17
2023-01-01T00:27:49.708Z,47.33
2023-01-01T00:30:16.084Z,43.93
2023-01-01T00:32:42.478Z,44.77
2023-01-01T00:35:21.472Z,35.90
2023-01-01T00:37:47.828Z,36.90
2023-01-01T00:40:14.232Z,33.73
2023-01-01T00:42:41.698Z,36.33
2023-01-01T00:45:08.745Z,31.10
2023-01-01T00:47:35.150Z,28.43
2023-01-01T00:50:01.506Z,23.43
2023-01-01T00:52:28.116Z,22.00
2023-01-01T00:54:54.500Z,20.70
2023-01-01T00:57:20.881Z,15.17
2023-01-01T00:59:47.367Z,16.47
2023-01-01T01:02:14.006Z,14.83
2023-01-01T01:04:40.423Z,18.10
2023-01-01T01:07:06.891Z,14.00
2023-01-01T01:09:33.421Z,16.63
2023-01-01T01:12:17.845Z,14.17
2023-01-01T01:14:45.636Z,15.60
2023-01-01T01:17:12.018Z,14.23
2023-01-01T01:19:38.373Z,15.07
2023-01-01T01:22:04.779Z,13.40
2023-01-01T01:24:31.230Z,16.60
2023-01-01T01:26:58.654Z,14.30
2023-01-01T01:29:25.341Z,17.10
2023-01-01T01:31:51.725Z,16.17
2023-01-01T01:34:21.215Z,14.37
2023-01-01T01:36:53.029Z,18.10
2023-01-01T01:39:19.965Z,15.77
2023-01-01T01:41:46.448Z,13.17
2023-01-01T01:44:49.752Z,18.80
2023-01-01T01:47:33.877Z,12.50
2023-01-01T01:50:22.811Z,12.60
2023-01-01T01:53:08.790Z,11.83
2023-01-01T01:55:39.929Z,14.03
2023-01-01T01:58:09.967Z,18.93
2023-01-01T02:00:37.110Z,13.57
2023-01-01T02:03:10.691Z,11.63
2023-01-01T02:05:44.955Z,17.93
2023-01-01T02:08:24.836Z,21.47
2023-01-01T02:10:52.577Z,15.40
2023-01-01T02:13:25.302Z,16.53
2023-01-01T02:15:58.004Z,10.63
2023-01-01T02:18:33.985Z,15.07
2023-01-01T02:21:07.463Z,10.07
2023-01-01T02:23:51.214Z,12.43
2023-01-01T02:26:42.867Z,16.07
2023-01-01T02:29:28.466Z,12.80
2023-01-01T02:31:58.355Z,12.03
2023-01-01T02:34:30.096Z,14.93
2023-01-01T02:37:03.777Z,12.23
2023-01-01T02:39:35.270Z,10.97
2023-01-01T02:42:06.211Z,14.47
2023-01-01T02:44:38.559Z,12.63
2023-01-01T02:47:18.079Z,11.40
2023-01-01T02:49:58.439Z,13.83
2023-01-01T02:52:44.437Z,8.90
2023-01-01T02:55:24.825Z,10.90
2023-01-01T02:58:19.796Z,9.93
2023-01-01T03:00:48.469Z,10.57
2023-01-01T03:03:38.825Z,11.10
2023-01-01T03:06:22.739Z,9.93
2023-01-01T03:09:01.179Z,10.03
2023-01-01T03:11:37.299Z,7.73
2023-01-01T03:14:38.568Z,11.73
2023-01-01T03:17:21.484Z,8.50
2023-01-01T03:19:49.314Z,12.83
2023-01-01T03:22:18.552Z,12.33
2023-01-01T03:24:59.154Z,10.47
2023-01-01T03:27:31.396Z,9.60
2023-01-01T03:30:01.733Z,8.67
2023-01-01T03:32:53.285Z,15.00
2023-01-01T03:35:23.711Z,8.57
2023-01-01T03:37:53.440Z,11.90
2023-01-01T03:40:21.932Z,14.60
2023-01-01T03:43:05.892Z,10.30
2023-01-01T03:45:42.361Z,11.63
2023-01-01T03:48:10.764Z,11.43
2023-01-01T03:50:48.089Z,11.60
2023-01-01T03:53:20.238Z,10.77
2023-01-01T03:55:56.101Z,13.63
2023-01-01T03:58:40.341Z,13.20
2023-01-01T04:01:26.879Z,10.70
2023-01-01T04:03:55.194Z,16.90
2023-01-01T04:06:22.152Z,12.97
2023-01-01T04:08:53.062Z,13.90
2023-01-01T04:11:45.561Z,14.20
2023-01-01T04:14:12.403Z,16.03
2023-01-01T04:16:40.124Z,16.33
2023-01-01T04:19:13.369Z,14.67
2023-01-01T04:21:47.507Z,19.03
2023-01-01T04:24:15.276Z,13.23
2023-01-01T04:26:51.842Z,18.63
2023-01-01T04:29:19.046Z,16.23
2023-01-01T04:31:49.579Z,17.17
2023-01-01T04:34:17.119Z,13.60
2023-01-01T04:36:44.264Z,18.47
2023-01-01T04:39:10.973Z,18.57
2023-01-01T04:41:41.004Z,16.97
2023-01-01T04:44:09.014Z,17.30
2023-01-01T04:46:35.728Z,17.30
2023-01-01T04:49:02.127Z,18.10
2023-01-01T04:51:28.579Z,15.13
2023-01-01T04:53:55.007Z,17.87
2023-01-01T04:56:22.472Z,17.37
2023-01-01T04:58:49.051Z,15.67
2023-01-01T05:01:17.174Z,14.33
2023-01-01T05:03:43.660Z,9.83
2023-01-01T05:06:12.198Z,10.87
2023-01-01T05:08:40.978Z,11.93
2023-01-01T05:11:18.956Z,7.53
2023-01-01T05:13:48.152Z,6.37
2023-01-01T05:16:18.549Z,5.67
2023-01-01T05:18:45.979Z,6.57
2023-01-01T05:21:15.581Z,5.43
2023-01-01T05:23:42.440Z,4.73
2023-01-01T05:26:16.621Z,3.57
2023-01-01T05:28:43.662Z,4.87
2023-01-01T05:31:19.517Z,6.13
2023-01-01T05:33:46.429Z,4.03
2023-01-01T05:36:25.428Z,3.50
2023-01-01T05:38:52.835Z,4.67
2023-01-01T05:41:20.673Z,5.87
2023-01-01T05:43:48.039Z,6.33
2023-01-01T05:46:17.172Z,4.47
2023-01-01T05:48:45.043Z,4.10
2023-01-01T05:51:20.600Z,3.87
2023-01-01T05:53:47.768Z,4.93
2023-01-01T05:56:19.168Z,5.20
2023-01-01T05:58:46.878Z,3.87
2023-01-01T06:01:15.481Z,5.00
2023-01-01T06:03:44.483Z,3.10
2023-01-01T06:06:17.733Z,4.63
2023-01-01T06:08:53.909Z,3.00
2023-01-01T06:11:21.293Z,6.40
2023-01-01T06:13:48.408Z,4.80
2023-01-01T06:16:15.401Z,5.90
2023-01-01T06:18:42.245Z,6.10
2023-01-01T06:21:14.880Z,4.33
2023-01-01T06:23:42.791Z,3.93
2023-01-01T06:26:11.508Z,4.47
2023-01-01T06:28:42.068Z,4.80
2023-01-01T06:31:11.522Z,3.43
2023-01-01T06:33:39.147Z,3.33
2023-01-01T06:36:08.626Z,3.17
2023-01-01T06:38:43.695Z,6.20
2023-01-01T06:41:13.282Z,2.70
2023-01-01T06:43:40.342Z,5.37
2023-01-01T06:46:15.021Z,3.50
2023-01-01T06:48:42.265Z,2.93
2023-01-01T06:51:14.968Z,3.07
2023-01-01T06:53:42.201Z,3.23
2023-01-01T06:56:09.976Z,4.70
2023-01-01T06:58:38.528Z,5.37
2023-01-01T07:01:21.367Z,3.13
2023-01-01T07:03:56.124Z,3.80
2023-01-01T07:06:24.354Z,4.77
2023-01-01T07:08:52.048Z,3.83
2023-01-01T07:11:18.994Z,5.30
2023-01-01T07:13:46.642Z,2.73
2023-01-01T07:16:14.301Z,2.23
2023-01-01T07:18:45.709Z,4.57
2023-01-01T07:21:32.964Z,2.70
2023-01-01T07:24:06.076Z,2.97
2023-01-01T07:26:33.980Z,3.60
2023-01-01T07:29:08.979Z,4.00
2023-01-01T07:31:40.605Z,2.50
2023-01-01T07:34:10.350Z,3.50
2023-01-01T07:36:37.054Z,7.30
2023-01-01T07:39:04.449Z,3.50
2023-01-01T07:41:31.199Z,2.50
2023-01-01T07:44:01.147Z,2.13
2023-01-01T07:46:28.748Z,2.60
2023-01-01T07:48:58.500Z,4.53
2023-01-01T07:51:25.762Z,7.23
2023-01-01T07:53:52.836Z,3.60
2023-01-01T07:56:20.080Z,2.93
2023-01-01T07:58:47.078Z,4.10
2023-01-01T08:01:15.176Z,2.47
2023-01-01T08:03:42.442Z,2.60
2023-01-01T08:06:14.026Z,2.73
2023-01-01T08:08:41.698Z,2.77
2023-01-01T08:11:09.034Z,3.00
2023-01-01T08:13:36.295Z,2.37
2023-01-01T08:16:03.501Z,2.57
2023-01-01T08:18:30.503Z,3.43
2023-01-01T08:21:01.625Z,4.17
2023-01-01T08:23:28.791Z,4.07
2023-01-01T08:25:59.364Z,6.30
2023-01-01T08:28:26.048Z,10.27
2023-01-01T08:30:52.939Z,5.33
2023-01-01T08:33:19.657Z,6.67
2023-01-01T08:35:51.949Z,5.03
2023-01-01T08:38:20.887Z,5.43
2023-01-01T08:40:48.611Z,6.37
2023-01-01T08:43:15.567Z,4.77
2023-01-01T08:45:42.456Z,7.23
2023-01-01T08:48:09.231Z,8.37
2023-01-01T08:50:35.724Z,7.47
2023-01-01T08:53:02.384Z,7.23
2023-01-01T08:55:29.237Z,10.33
2023-01-01T08:57:55.619Z,9.10
2023-01-01T09:00:22.119Z,6.60
2023-01-01T09:02:48.678Z,7.57
2023-01-01T09:05:15.431Z,8.63
2023-01-01T09:07:41.828Z,5.93
2023-01-01T09:10:08.541Z,6.97
2023-01-01T09:12:35.112Z,6.10
2023-01-01T09:15:01.539Z,6.57
2023-01-01T09:17:27.986Z,3.77
2023-01-01T09:19:54.420Z,5.73
2023-01-01T09:22:20.812Z,5.57
2023-01-01T09:24:47.208Z,6.83
2023-01-01T09:27:13.603Z,6.00
2023-01-01T09:29:40.037Z,5.93
2023-01-01T09:32:06.492Z,3.40
2023-01-01T09:34:32.941Z,4.63
2023-01-01T09:36:59.328Z,4.53
2023-01-01T09:39:25.672Z,8.30
2023-01-01T09:42:02.894Z,5.53
2023-01-01T09:44:46.917Z,5.87
2023-01-01T09:47:33.932Z,5.67
2023-01-01T09:50:25.947Z,3.63
2023-01-01T09:53:07.024Z,6.40
2023-01-01T09:55:59.619Z,9.23
2023-01-01T09:58:37.246Z,6.33
2023-01-01T10:01:13.170Z,4.17
2023-01-01T10:03:53.973Z,5.73
2023-01-01T10:06:33.741Z,5.43
2023-01-01T10:09:12.516Z,5.67
2023-01-01T10:11:59.431Z,9.67
2023-01-01T10:14:34.284Z,5.73
2023-01-01T10:17:06.368Z,5.47
2023-01-01T10:19:41.665Z,3.87
2023-01-01T10:22:13.934Z,5.00
2023-01-01T10:25:08.155Z,6.50
2023-01-01T10:27:39.855Z,5.03
2023-01-01T10:30:25.220Z,5.63
2023-01-01T10:32:53.966Z,4.17
2023-01-01T10:35:37.735Z,2.70
2023-01-01T10:38:05.900Z,2.50
2023-01-01T10:40:33.084Z,3.53
2023-01-01T10:43:02.612Z,3.13
2023-01-01T10:45:40.055Z,3.47
2023-01-01T10:48:20.476Z,6.70
2023-01-01T10:50:51.586Z,3.47
2023-01-01T10:53:39.888Z,4.07
2023-01-01T10:56:15.220Z,2.63
2023-01-01T10:58:44.458Z,2.73
2023-01-01T11:01:17.928Z,3.53
2023-01-01T11:04:17.797Z,4.10
2023-01-01T11:06:46.939Z,2.57
2023-01-01T11:09:29.574Z,4.67
2023-01-01T11:12:05.373Z,6.33
2023-01-01T11:14:50.317Z,4.27
2023-01-01T11:17:25.047Z,5.10
2023-01-01T11:19:58.159Z,2.33
2023-01-01T11:22:51.516Z,3.20
2023-01-01T11:25:21.745Z,3.23
2023-01-01T11:27:49.487Z,2.53
2023-01-01T11:30:27.428Z,4.07
2023-01-01T11:32:59.623Z,2.70
2023-01-01T11:35:29.057Z,3.27
2023-01-01T11:37:56.917Z,6.80
2023-01-01T11:40:29.329Z,4.93
2023-01-01T11:43:05.067Z,3.80
2023-01-01T11:45:39.399Z,2.37
2023-01-01T11:48:17.058Z,7.20
2023-01-01T11:50:55.479Z,3.33
2023-01-01T11:53:22.163Z,2.03
2023-01-01T11:56:10.186Z,5.20
2023-01-01T11:58:36.581Z,5.33
2023-01-01T12:01:35.794Z,1.90
2023-01-01T12:04:16.565Z,2.53
2023-01-01T12:07:09.415Z,4.43
2023-01-01T12:09:51.172Z,2.57
2023-01-01T12:12:30.819Z,1.93
2023-01-01T12:15:22.890Z,3.20
2023-01-01T12:18:04.508Z,4.43
2023-01-01T12:20:38.163Z,4.67
2023-01-01T12:23:05.089Z,9.40
2023-01-01T12:25:44.007Z,4.37
2023-01-01T12:28:28.200Z,11.87
2023-01-01T12:31:13.953Z,7.63
2023-01-01T12:34:11.748Z,4.57
2023-01-01T12:37:08.772Z,3.93
2023-01-01T12:40:12.834Z,3.73
2023-01-01T12:42:53.156Z,2.60
2023-01-01T12:45:37.559Z,2.13
2023-01-01T12:48:16.507Z,5.57
2023-01-01T12:51:04.965Z,3.77
2023-01-01T12:53:43.226Z,3.03
2023-01-01T12:56:23.847Z,6.03
2023-01-01T12:59:02.153Z,3.33
2023-01-01T13:01:34.177Z,4.40
2023-01-01T13:04:03.507Z,2.47
2023-01-01T13:06:52.133Z,5.03
2023-01-01T13:09:25.783Z,2.70
2023-01-01T13:12:16.675Z,2.50
2023-01-01T13:14:46.054Z,4.27
2023-01-01T13:17:30.893Z,3.63
2023-01-01T13:20:17.396Z,2.00
2023-01-01T13:22:44.932Z,3.43
2023-01-01T13:25:11.566Z,3.03
2023-01-01T13:27:57.366Z,5.10
2023-01-01T13:30:36.297Z,6.23
2023-01-01T13:33:27.392Z,2.17
2023-01-01T13:36:13.978Z,6.93
2023-01-01T13:38:48.292Z,3.07
2023-01-01T13:41:27.240Z,7.70
2023-01-01T13:44:00.252Z,1.93
2023-01-01T13:46:43.751Z,3.97
2023-01-01T13:49:27.532Z,4.77
2023-01-01T13:52:39.597Z,5.47
2023-01-01T13:55:25.211Z,4.67
2023-01-01T13:58:19.789Z,7.87
2023-01-01T14:01:18.477Z,1.70
2023-01-01T14:03:50.321Z,2.60
2023-01-01T14:06:32.744Z,3.63
2023-01-01T14:09:07.681Z,3.10
2023-01-01T14:11:38.048Z,3.70
2023-01-01T14:14:24.706Z,1.97
2023-01-01T14:16:53.567Z,2.50
2023-01-01T14:19:20.495Z,6.43
2023-01-01T14:21:47.920Z,3.57
2023-01-01T14:24:18.602Z,2.63
2023-01-01T14:26:46.812Z,3.27
2023-01-01T14:29:29.460Z,4.57
2023-01-01T14:32:01.060Z,2.40
2023-01-01T14:34:33.256Z,3.23
2023-01-01T14:37:02.450Z,1.87
2023-01-01T14:39:35.139Z,2.27
2023-01-01T14:42:07.853Z,3.13
2023-01-01T14:44:46.949Z,3.00
2023-01-01T14:47:39.711Z,5.13
2023-01-01T14:50:19.428Z,2.83
2023-01-01T14:52:51.929Z,3.80
2023-01-01T14:55:19.744Z,5.77
2023-01-01T14:57:56.115Z,6.77
2023-01-01T15:00:26.581Z,3.37
2023-01-01T15:02:53.128Z,3.60
2023-01-01T15:05:22.578Z,3.70
2023-01-01T15:08:00.125Z,7.90
2023-01-01T15:10:29.201Z,4.57
2023-01-01T15:12:56.971Z,5.07
2023-01-01T15:15:45.160Z,7.97
2023-01-01T15:18:45.757Z,7.30
2023-01-01T15:21:30.944Z,4.57
2023-01-01T15:24:00.966Z,3.83
2023-01-01T15:26:31.295Z,4.23
2023-01-01T15:28:59.185Z,5.83
2023-01-01T15:31:48.325Z,9.03
2023-01-01T15:34:42.577Z,6.30
2023-01-01T15:37:23.398Z,5.27
2023-01-01T15:39:52.371Z,6.43
2023-01-01T15:42:39.929Z,8.70
2023-01-01T15:45:21.177Z,7.70
2023-01-01T15:47:48.989Z,16.43
2023-01-01T15:50:23.291Z,11.50
2023-01-01T15:53:01.508Z,4.93
2023-01-01T15:55:31.353Z,5.53
2023-01-01T15:57:59.040Z,9.70
2023-01-01T16:00:31.743Z,15.97
2023-01-01T16:03:02.172Z,11.53
2023-01-01T16:05:28.942Z,6.97
2023-01-01T16:08:04.297Z,19.23
2023-01-01T16:10:32.031Z,10.93
2023-01-01T16:12:59.147Z,21.83
2023-01-01T16:15:26.039Z,18.23
2023-01-01T16:17:52.529Z,15.57
2023-01-01T16:20:21.552Z,18.27
2023-01-01T16:22:48.493Z,17.37
2023-01-01T16:25:15.728Z,17.20
2023-01-01T16:27:42.482Z,15.87
2023-01-01T16:30:09.753Z,10.53
2023-01-01T16:32:36.271Z,9.20
2023-01-01T16:35:08.102Z,11.13
2023-01-01T16:37:37.840Z,11.50
2023-01-01T16:40:04.707Z,13.03
2023-01-01T16:42:31.148Z,14.43
2023-01-01T16:44:57.560Z,8.67
2023-01-01T16:47:24.507Z,7.23
2023-01-01T16:49:50.944Z,8.77
2023-01-01T16:52:17.342Z,9.43
2023-01-01T16:54:43.792Z,8.80
2023-01-01T16:57:11.862Z,7.87
2023-01-01T16:59:38.323Z,10.87
2023-01-01T17:02:05.956Z,12.17
2023-01-01T17:04:32.473Z,13.03
2023-01-01T17:06:58.922Z,7.57
2023-01-01T17:09:25.321Z,8.20
2023-01-01T17:11:51.755Z,5.03
2023-01-01T17:14:18.529Z,7.27
2023-01-01T17:16:44.976Z,5.37
2023-01-01T17:19:17.396Z,4.87
2023-01-01T17:21:45.633Z,10.37
2023-01-01T17:24:12.460Z,7.67
2023-01-01T17:26:38.966Z,5.23
2023-01-01T17:29:07.458Z,6.67
2023-01-01T17:31:34.007Z,6.43
2023-01-01T17:34:00.435Z,10.80
2023-01-01T17:36:29.731Z,7.47
2023-01-01T17:38:56.875Z,5.43
2023-01-01T17:41:23.445Z,9.73
2023-01-01T17:43:51.493Z,8.30
2023-01-01T17:46:26.692Z,5.47
2023-01-01T17:48:53.337Z,7.83
2023-01-01T17:51:20.708Z,6.53
2023-01-01T17:53:47.561Z,7.43
2023-01-01T17:56:16.081Z,12.77
2023-01-01T17:58:44.076Z,9.23
2023-01-01T18:01:10.580Z,6.93
2023-01-01T18:03:37.489Z,10.40
2023-01-01T18:06:04.278Z,7.63
2023-01-01T18:08:32.937Z,9.97
2023-01-01T18:11:00.354Z,9.03
2023-01-01T18:13:27.341Z,7.43
2023-01-01T18:15:54.280Z,8.90
2023-01-01T18:18:20.859Z,9.90
2023-01-01T18:20:47.344Z,8.93
2023-01-01T18:23:13.749Z,9.20
2023-01-01T18:25:40.252Z,11.13
2023-01-01T18:28:07.975Z,8.13
2023-01-01T18:30:36.501Z,7.17
2023-01-01T18:33:03.056Z,16.67
2023-01-01T18:35:30.927Z,7.00
2023-01-01T18:37:57.329Z,9.27
2023-01-01T18:40:24.063Z,7.33
2023-01-01T18:42:50.523Z,8.40
2023-01-01T18:45:22.503Z,7.10
2023-01-01T18:47:49.544Z,9.03
2023-01-01T18:50:25.963Z,11.13
2023-01-01T18:52:55.936Z,9.73
2023-01-01T18:55:26.929Z,9.77
2023-01-01T18:58:08.387Z,6.37
2023-01-01T19:00:37.138Z,6.97
2023-01-01T19:03:11.300Z,14.33
2023-01-01T19:05:38.158Z,8.33
2023-01-01T19:08:07.695Z,7.63
2023-01-01T19:10:51.761Z,7.10
2023-01-01T19:13:35.155Z,6.13
2023-01-01T19:16:10.886Z,12.13
2023-01-01T19:18:45.260Z,8.23
2023-01-01T19:21:11.572Z,6.90
2023-01-01T19:23:46.875Z,9.20
2023-01-01T19:26:26.022Z,12.20
2023-01-01T19:28:54.391Z,7.60
2023-01-01T19:31:20.897Z,5.83
2023-01-01T19:33:47.739Z,5.17
2023-01-01T19:36:14.218Z,5.37
2023-01-01T19:38:40.737Z,6.43
2023-01-01T19:41:08.276Z,4.67
2023-01-01T19:43:35.981Z,5.63
2023-01-01T19:46:02.758Z,4.50
2023-01-01T19:48:29.957Z,3.10
2023-01-01T19:50:57.661Z,4.87
2023-01-01T19:53:24.071Z,5.60
2023-01-01T19:55:50.486Z,3.67
2023-01-01T19:58:19.659Z,3.13
2023-01-01T20:00:46.199Z,4.27
2023-01-01T20:03:52.378Z,3.60
2023-01-01T20:05:59.076Z,3.43
2023-01-01T20:08:26.883Z,3.63
2023-01-01T20:10:53.336Z,3.53
2023-01-01T20:13:19.838Z,2.30
2023-01-01T20:15:47.062Z,5.23
2023-01-01T20:18:13.778Z,3.30
2023-01-01T20:21:00.191Z,2.03
2023-01-01T20:23:26.625Z,3.17
2023-01-01T20:25:53.081Z,2.17
2023-01-01T20:28:38.382Z,4.87
2023-01-01T20:31:05.017Z,4.43
2023-01-01T20:33:31.477Z,3.20
2023-01-01T20:36:16.564Z,3.57
2023-01-01T20:38:43.012Z,2.73
2023-01-01T20:41:24.635Z,3.83
2023-01-01T20:43:53.125Z,3.80
2023-01-01T20:46:19.705Z,4.43
2023-01-01T20:48:46.501Z,3.13
2023-01-01T20:51:13.107Z,2.30
2023-01-01T20:53:39.974Z,3.00
2023-01-01T20:56:06.676Z,3.17
2023-01-01T20:58:33.094Z,3.10
2023-01-01T21:00:59.639Z,4.17
2023-01-01T21:03:26.224Z,2.33
2023-01-01T21:05:52.733Z,2.93
2023-01-01T21:08:19.724Z,2.07
2023-01-01T21:10:46.162Z,3.10
2023-01-01T21:13:12.600Z,7.43
2023-01-01T21:15:39.035Z,3.13
2023-01-01T21:18:06.023Z,3.53
2023-01-01T21:20:37.995Z,3.83
2023-01-01T21:23:13.185Z,2.33
2023-01-01T21:25:54.856Z,2.97
2023-01-01T21:28:21.331Z,5.73
2023-01-01T21:30:53.540Z,1.93
2023-01-01T21:33:27.282Z,3.23
2023-01-01T21:35:54.332Z,1.87
2023-01-01T21:38:29.441Z,2.80
2023-01-01T21:41:00.457Z,3.90
2023-01-01T21:43:44.152Z,2.90
2023-01-01T21:46:16.701Z,2.10
2023-01-01T21:49:17.252Z,4.23
2023-01-01T21:51:51.527Z,2.53
2023-01-01T21:54:24.960Z,4.40
2023-01-01T21:56:57.407Z,5.67
2023-01-01T21:59:46.038Z,3.10
2023-01-01T22:02:12.555Z,3.57
2023-01-01T22:04:48.222Z,2.90
2023-01-01T22:10:51.015Z,1.40
2023-01-01T22:13:19.429Z,2.20
2023-01-01T22:15:46.450Z,3.13
2023-01-01T22:18:25.607Z,1.70
2023-01-01T22:20:52.134Z,2.07
2023-01-01T22:23:37.900Z,1.80
2023-01-01T22:26:14.600Z,1.57
2023-01-01T22:28:44.141Z,1.40
2023-01-01T22:31:17.770Z,2.03
2023-01-01T22:33:47.003Z,2.67
2023-01-01T22:36:20.555Z,1.60
2023-01-01T22:38:50.623Z,2.73
2023-01-01T22:41:18.037Z,4.67
2023-01-01T22:43:47.232Z,4.67
2023-01-01T22:46:26.902Z,1.97
2023-01-01T22:48:58.469Z,1.70
2023-01-01T22:51:28.254Z,2.90
2023-01-01T22:53:55.332Z,3.07
2023-01-01T22:56:22.728Z,2.33
2023-01-01T22:58:56.587Z,2.10
2023-01-01T23:01:39.716Z,2.30
2023-01-01T23:04:10.240Z,2.60
2023-01-01T23:06:39.292Z,1.87
2023-01-01T23:09:14.496Z,1.40
2023-01-01T23:11:41.624Z,2.63
2023-01-01T23:14:27.840Z,2.40
2023-01-01T23:16:58.650Z,1.30
2023-01-01T23:19:25.408Z,1.23
2023-01-01T23:21:52.999Z,1.90
2023-01-01T23:24:23.333Z,1.30
2023-01-01T23:26:51.597Z,4.23
2023-01-01T23:29:23.702Z,1.97
2023-01-01T23:31:53.917Z,2.77
2023-01-01T23:34:20.902Z,1.60
2023-01-01T23:36:48.536Z,1.30
2023-01-01T23:39:14.908Z,1.23
2023-01-01T23:41:41.268Z,1.43
2023-01-01T23:44:07.693Z,1.77
2023-01-01T23:46:35.074Z,1.40
2023-01-01T23:49:02.610Z,1.20
2023-01-01T23:51:29.075Z,1.87
2023-01-01T23:53:55.420Z,1.73
2023-01-01T23:56:21.772Z,4.80
2023-01-01T23:58:48.293Z,1.60
